Coventry, Vermont
Current Conditions -  °F | °C
As of 5:54 PM on Tuesday 21 Oct 2014 (Local Time) from KMVL Reporting Station
Light Rain Light Rain  
Wind Chill: 47°   Ceiling: 600
Heat Index: 47°   Visibility: 7mi
Dew Point: 46°   Wind: 0mph
Humidity: 97%   Direction: NA
Pressure: 30.04"   Gusts: NA
Location:  44.87°N, 72.27°W
Report Text: KMVL 212154Z AUTO 00000KT 7SM -RA BKN006 OVC010 08/08 A3004 RMK AO2 CIG 005V010 SLP179 P0001 T00830078
Loading
Personal Weather Stations






























Interactive Weather Map
Tropical Storm Tracking
New forecast layout! Learn more

10-Day Weather Forecast

Advertisements
Track Severe Weather on mobile